sensor_id;sensor_type;location;lat;lon;timestamp;P1;durP1;ratioP1;P2;durP2;ratioP2
2406;SDS011;37709;53.480;9.688;2022-12-24T00:01:07;65.93;;;20.10;;
2406;SDS011;37709;53.480;9.688;2022-12-24T00:03:37;50.13;;;17.13;;
2406;SDS011;37709;53.480;9.688;2022-12-24T00:06:06;49.43;;;17.60;;
2406;SDS011;37709;53.480;9.688;2022-12-24T00:08:34;63.07;;;19.77;;
2406;SDS011;37709;53.480;9.688;2022-12-24T00:11:02;42.33;;;17.20;;
2406;SDS011;37709;53.480;9.688;2022-12-24T00:13:29;55.53;;;18.00;;
2406;SDS011;37709;53.480;9.688;2022-12-24T00:15:56;58.20;;;19.53;;
2406;SDS011;37709;53.480;9.688;2022-12-24T00:18:24;63.50;;;17.70;;
2406;SDS011;37709;53.480;9.688;2022-12-24T00:20:51;40.90;;;16.07;;
2406;SDS011;37709;53.480;9.688;2022-12-24T00:23:19;60.63;;;18.03;;
2406;SDS011;37709;53.480;9.688;2022-12-24T00:25:47;46.70;;;18.10;;
2406;SDS011;37709;53.480;9.688;2022-12-24T00:28:14;67.13;;;19.30;;
2406;SDS011;37709;53.480;9.688;2022-12-24T00:30:43;50.33;;;16.23;;
2406;SDS011;37709;53.480;9.688;2022-12-24T00:33:10;53.00;;;18.37;;
2406;SDS011;37709;53.480;9.688;2022-12-24T00:35:38;51.40;;;17.70;;
2406;SDS011;37709;53.480;9.688;2022-12-24T00:38:07;73.33;;;19.93;;
2406;SDS011;37709;53.480;9.688;2022-12-24T00:40:35;57.43;;;19.20;;
2406;SDS011;37709;53.480;9.688;2022-12-24T00:43:02;48.67;;;16.63;;
2406;SDS011;37709;53.480;9.688;2022-12-24T00:45:30;50.13;;;17.80;;
2406;SDS011;37709;53.480;9.688;2022-12-24T00:47:57;68.40;;;21.87;;
2406;SDS011;37709;53.480;9.688;2022-12-24T00:50:25;66.20;;;18.90;;
2406;SDS011;37709;53.480;9.688;2022-12-24T00:52:52;50.10;;;19.17;;
2406;SDS011;37709;53.480;9.688;2022-12-24T00:55:19;68.07;;;19.90;;
2406;SDS011;37709;53.480;9.688;2022-12-24T00:57:47;55.03;;;20.03;;
2406;SDS011;37709;53.480;9.688;2022-12-24T01:00:14;74.20;;;20.57;;
2406;SDS011;37709;53.480;9.688;2022-12-24T01:02:44;62.80;;;20.57;;
2406;SDS011;37709;53.480;9.688;2022-12-24T01:05:11;61.73;;;19.27;;
2406;SDS011;37709;53.480;9.688;2022-12-24T01:07:40;52.13;;;18.00;;
2406;SDS011;37709;53.480;9.688;2022-12-24T01:10:13;46.07;;;15.70;;
2406;SDS011;37709;53.480;9.688;2022-12-24T01:12:43;65.63;;;18.03;;
2406;SDS011;37709;53.480;9.688;2022-12-24T01:15:11;38.20;;;15.20;;
2406;SDS011;37709;53.480;9.688;2022-12-24T01:17:40;44.23;;;15.50;;
2406;SDS011;37709;53.480;9.688;2022-12-24T01:20:10;51.27;;;17.60;;
2406;SDS011;37709;53.480;9.688;2022-12-24T01:22:40;45.40;;;17.07;;
2406;SDS011;37709;53.480;9.688;2022-12-24T01:25:08;50.03;;;18.00;;
2406;SDS011;37709;53.480;9.688;2022-12-24T01:27:36;67.20;;;19.53;;
2406;SDS011;37709;53.480;9.688;2022-12-24T01:30:04;84.27;;;21.27;;
2406;SDS011;37709;53.480;9.688;2022-12-24T01:32:33;46.63;;;16.57;;
2406;SDS011;37709;53.480;9.688;2022-12-24T01:35:02;38.30;;;13.73;;
2406;SDS011;37709;53.480;9.688;2022-12-24T01:37:29;62.43;;;20.10;;
2406;SDS011;37709;53.480;9.688;2022-12-24T01:39:57;52.70;;;17.27;;
2406;SDS011;37709;53.480;9.688;2022-12-24T01:42:44;43.00;;;16.87;;
2406;SDS011;37709;53.480;9.688;2022-12-24T01:45:37;41.80;;;17.07;;
2406;SDS011;37709;53.480;9.688;2022-12-24T01:51:18;57.20;;;17.87;;
2406;SDS011;37709;53.480;9.688;2022-12-24T01:53:56;43.53;;;15.73;;
2406;SDS011;37709;53.480;9.688;2022-12-24T01:56:32;40.03;;;14.90;;
2406;SDS011;37709;53.480;9.688;2022-12-24T01:59:04;63.20;;;18.97;;
2406;SDS011;37709;53.480;9.688;2022-12-24T02:01:35;54.77;;;17.63;;
2406;SDS011;37709;53.480;9.688;2022-12-24T02:04:06;52.70;;;17.83;;
2406;SDS011;37709;53.480;9.688;2022-12-24T02:06:41;46.17;;;16.00;;
2406;SDS011;37709;53.480;9.688;2022-12-24T02:09:09;65.33;;;19.40;;
2406;SDS011;37709;53.480;9.688;2022-12-24T02:11:37;63.43;;;18.27;;
2406;SDS011;37709;53.480;9.688;2022-12-24T02:14:06;48.87;;;18.83;;
2406;SDS011;37709;53.480;9.688;2022-12-24T02:16:37;46.27;;;16.63;;
2406;SDS011;37709;53.480;9.688;2022-12-24T02:19:27;61.30;;;17.20;;
2406;SDS011;37709;53.480;9.688;2022-12-24T02:22:40;49.93;;;16.80;;
2406;SDS011;37709;53.480;9.688;2022-12-24T02:28:39;45.17;;;16.67;;
2406;SDS011;37709;53.480;9.688;2022-12-24T02:31:20;72.43;;;18.10;;
2406;SDS011;37709;53.480;9.688;2022-12-24T02:34:10;56.23;;;17.20;;
2406;SDS011;37709;53.480;9.688;2022-12-24T02:36:54;32.80;;;13.40;;
2406;SDS011;37709;53.480;9.688;2022-12-24T02:39:32;39.07;;;14.87;;
2406;SDS011;37709;53.480;9.688;2022-12-24T02:42:06;46.70;;;14.33;;
2406;SDS011;37709;53.480;9.688;2022-12-24T02:44:58;53.80;;;17.03;;
2406;SDS011;37709;53.480;9.688;2022-12-24T02:47:31;32.60;;;14.00;;
2406;SDS011;37709;53.480;9.688;2022-12-24T02:50:01;32.63;;;13.23;;
2406;SDS011;37709;53.480;9.688;2022-12-24T02:55:02;41.53;;;13.73;;
2406;SDS011;37709;53.480;9.688;2022-12-24T02:58:10;38.43;;;13.70;;
2406;SDS011;37709;53.480;9.688;2022-12-24T03:06:49;42.57;;;14.50;;
2406;SDS011;37709;53.480;9.688;2022-12-24T03:15:06;48.17;;;15.50;;
2406;SDS011;37709;53.480;9.688;2022-12-24T03:17:36;40.40;;;14.27;;
2406;SDS011;37709;53.480;9.688;2022-12-24T03:20:05;52.77;;;15.87;;
2406;SDS011;37709;53.480;9.688;2022-12-24T03:22:34;49.33;;;16.07;;
2406;SDS011;37709;53.480;9.688;2022-12-24T03:25:02;50.03;;;15.67;;
2406;SDS011;37709;53.480;9.688;2022-12-24T03:27:31;51.00;;;16.47;;
2406;SDS011;37709;53.480;9.688;2022-12-24T03:29:59;43.63;;;14.57;;
2406;SDS011;37709;53.480;9.688;2022-12-24T03:32:28;42.83;;;14.60;;
2406;SDS011;37709;53.480;9.688;2022-12-24T03:34:57;57.40;;;17.53;;
2406;SDS011;37709;53.480;9.688;2022-12-24T03:37:25;47.83;;;14.27;;
2406;SDS011;37709;53.480;9.688;2022-12-24T03:39:53;60.07;;;18.00;;
2406;SDS011;37709;53.480;9.688;2022-12-24T03:42:20;36.50;;;14.63;;
2406;SDS011;37709;53.480;9.688;2022-12-24T03:44:47;88.63;;;19.10;;
2406;SDS011;37709;53.480;9.688;2022-12-24T03:47:15;37.23;;;14.33;;
2406;SDS011;37709;53.480;9.688;2022-12-24T03:49:42;40.73;;;15.17;;
2406;SDS011;37709;53.480;9.688;2022-12-24T03:52:09;46.80;;;15.30;;
2406;SDS011;37709;53.480;9.688;2022-12-24T03:54:37;51.00;;;16.60;;
2406;SDS011;37709;53.480;9.688;2022-12-24T03:57:05;51.40;;;16.67;;
2406;SDS011;37709;53.480;9.688;2022-12-24T03:59:32;54.00;;;15.50;;
2406;SDS011;37709;53.480;9.688;2022-12-24T04:01:59;63.40;;;18.47;;
2406;SDS011;37709;53.480;9.688;2022-12-24T04:04:27;54.80;;;15.50;;
2406;SDS011;37709;53.480;9.688;2022-12-24T04:06:54;57.87;;;16.77;;
2406;SDS011;37709;53.480;9.688;2022-12-24T04:09:22;48.40;;;14.87;;
2406;SDS011;37709;53.480;9.688;2022-12-24T04:11:49;55.17;;;16.03;;
2406;SDS011;37709;53.480;9.688;2022-12-24T04:14:16;32.20;;;13.13;;
2406;SDS011;37709;53.480;9.688;2022-12-24T04:16:44;47.37;;;16.17;;
2406;SDS011;37709;53.480;9.688;2022-12-24T04:19:11;68.33;;;17.23;;
2406;SDS011;37709;53.480;9.688;2022-12-24T04:21:39;50.13;;;16.30;;
2406;SDS011;37709;53.480;9.688;2022-12-24T04:24:06;42.60;;;14.07;;
2406;SDS011;37709;53.480;9.688;2022-12-24T04:26:33;35.23;;;13.40;;
2406;SDS011;37709;53.480;9.688;2022-12-24T04:29:00;50.83;;;15.67;;
2406;SDS011;37709;53.480;9.688;2022-12-24T04:31:28;50.10;;;14.30;;
2406;SDS011;37709;53.480;9.688;2022-12-24T04:33:55;45.87;;;15.33;;
2406;SDS011;37709;53.480;9.688;2022-12-24T04:36:23;36.23;;;13.30;;
2406;SDS011;37709;53.480;9.688;2022-12-24T04:38:50;40.10;;;12.50;;
2406;SDS011;37709;53.480;9.688;2022-12-24T04:41:18;47.33;;;14.33;;
2406;SDS011;37709;53.480;9.688;2022-12-24T04:43:51;37.37;;;12.67;;
2406;SDS011;37709;53.480;9.688;2022-12-24T04:46:20;50.47;;;13.97;;
2406;SDS011;37709;53.480;9.688;2022-12-24T04:48:50;35.50;;;12.73;;
2406;SDS011;37709;53.480;9.688;2022-12-24T04:51:19;48.00;;;13.63;;
2406;SDS011;37709;53.480;9.688;2022-12-24T04:53:47;36.13;;;13.20;;
2406;SDS011;37709;53.480;9.688;2022-12-24T04:56:16;49.83;;;14.67;;
2406;SDS011;37709;53.480;9.688;2022-12-24T04:58:45;51.50;;;13.13;;
2406;SDS011;37709;53.480;9.688;2022-12-24T05:01:14;45.23;;;14.73;;
2406;SDS011;37709;53.480;9.688;2022-12-24T05:03:47;36.60;;;11.60;;
2406;SDS011;37709;53.480;9.688;2022-12-24T05:06:16;42.97;;;13.73;;
2406;SDS011;37709;53.480;9.688;2022-12-24T05:08:45;32.90;;;11.43;;
2406;SDS011;37709;53.480;9.688;2022-12-24T05:11:13;35.33;;;12.30;;
2406;SDS011;37709;53.480;9.688;2022-12-24T05:13:41;41.00;;;13.30;;
2406;SDS011;37709;53.480;9.688;2022-12-24T05:16:14;31.63;;;12.10;;
2406;SDS011;37709;53.480;9.688;2022-12-24T05:18:42;27.23;;;10.67;;
2406;SDS011;37709;53.480;9.688;2022-12-24T05:21:10;41.60;;;13.27;;
2406;SDS011;37709;53.480;9.688;2022-12-24T05:23:41;55.63;;;13.53;;
2406;SDS011;37709;53.480;9.688;2022-12-24T05:26:29;32.00;;;11.23;;
2406;SDS011;37709;53.480;9.688;2022-12-24T05:29:04;37.20;;;11.40;;
2406;SDS011;37709;53.480;9.688;2022-12-24T05:31:32;29.00;;;10.33;;
2406;SDS011;37709;53.480;9.688;2022-12-24T05:34:00;35.33;;;12.23;;
2406;SDS011;37709;53.480;9.688;2022-12-24T05:36:29;54.50;;;13.53;;
2406;SDS011;37709;53.480;9.688;2022-12-24T05:38:56;35.17;;;11.80;;
2406;SDS011;37709;53.480;9.688;2022-12-24T05:41:24;33.10;;;11.37;;
2406;SDS011;37709;53.480;9.688;2022-12-24T05:43:52;32.20;;;10.60;;
2406;SDS011;37709;53.480;9.688;2022-12-24T05:46:20;47.60;;;13.63;;
2406;SDS011;37709;53.480;9.688;2022-12-24T05:48:48;35.93;;;11.77;;
2406;SDS011;37709;53.480;9.688;2022-12-24T05:51:17;34.97;;;11.80;;
2406;SDS011;37709;53.480;9.688;2022-12-24T05:53:48;21.53;;;9.23;;
2406;SDS011;37709;53.480;9.688;2022-12-24T05:56:20;36.43;;;11.60;;
2406;SDS011;37709;53.480;9.688;2022-12-24T05:58:49;27.33;;;10.70;;
2406;SDS011;37709;53.480;9.688;2022-12-24T06:01:18;25.57;;;9.60;;
2406;SDS011;37709;53.480;9.688;2022-12-24T06:03:46;29.50;;;10.63;;
2406;SDS011;37709;53.480;9.688;2022-12-24T06:06:21;29.20;;;10.80;;
2406;SDS011;37709;53.480;9.688;2022-12-24T06:08:51;24.60;;;10.10;;
2406;SDS011;37709;53.480;9.688;2022-12-24T06:11:22;32.07;;;9.87;;
2406;SDS011;37709;53.480;9.688;2022-12-24T06:13:51;26.27;;;9.53;;
2406;SDS011;37709;53.480;9.688;2022-12-24T06:16:19;29.43;;;10.07;;
2406;SDS011;37709;53.480;9.688;2022-12-24T06:18:48;33.23;;;11.50;;
2406;SDS011;37709;53.480;9.688;2022-12-24T06:21:16;24.93;;;9.30;;
2406;SDS011;37709;53.480;9.688;2022-12-24T06:23:44;29.80;;;9.73;;
2406;SDS011;37709;53.480;9.688;2022-12-24T06:26:13;29.87;;;10.53;;
2406;SDS011;37709;53.480;9.688;2022-12-24T06:28:43;23.97;;;10.17;;
2406;SDS011;37709;53.480;9.688;2022-12-24T06:31:12;29.23;;;9.63;;
2406;SDS011;37709;53.480;9.688;2022-12-24T06:33:41;26.63;;;8.97;;
2406;SDS011;37709;53.480;9.688;2022-12-24T06:36:12;31.40;;;10.60;;
2406;SDS011;37709;53.480;9.688;2022-12-24T06:38:45;21.50;;;9.47;;
2406;SDS011;37709;53.480;9.688;2022-12-24T06:41:14;21.33;;;9.50;;
2406;SDS011;37709;53.480;9.688;2022-12-24T06:43:46;21.47;;;9.13;;
2406;SDS011;37709;53.480;9.688;2022-12-24T06:46:15;21.70;;;9.87;;
2406;SDS011;37709;53.480;9.688;2022-12-24T06:48:43;35.07;;;11.20;;
2406;SDS011;37709;53.480;9.688;2022-12-24T06:51:12;22.83;;;9.47;;
2406;SDS011;37709;53.480;9.688;2022-12-24T06:53:40;19.80;;;9.47;;
2406;SDS011;37709;53.480;9.688;2022-12-24T06:56:09;26.37;;;10.10;;
2406;SDS011;37709;53.480;9.688;2022-12-24T06:58:38;18.43;;;9.23;;
2406;SDS011;37709;53.480;9.688;2022-12-24T07:01:07;24.97;;;9.80;;
2406;SDS011;37709;53.480;9.688;2022-12-24T07:03:38;29.87;;;9.60;;
2406;SDS011;37709;53.480;9.688;2022-12-24T07:06:06;32.67;;;10.07;;
2406;SDS011;37709;53.480;9.688;2022-12-24T07:08:36;25.77;;;9.80;;
2406;SDS011;37709;53.480;9.688;2022-12-24T07:11:04;22.13;;;8.93;;
2406;SDS011;37709;53.480;9.688;2022-12-24T07:13:31;32.17;;;10.67;;
2406;SDS011;37709;53.480;9.688;2022-12-24T07:16:00;29.50;;;10.80;;
2406;SDS011;37709;53.480;9.688;2022-12-24T07:18:29;34.10;;;10.70;;
2406;SDS011;37709;53.480;9.688;2022-12-24T07:20:57;34.70;;;10.90;;
2406;SDS011;37709;53.480;9.688;2022-12-24T07:23:25;30.50;;;11.17;;
2406;SDS011;37709;53.480;9.688;2022-12-24T07:25:53;21.47;;;9.90;;
2406;SDS011;37709;53.480;9.688;2022-12-24T07:28:20;32.00;;;10.87;;
2406;SDS011;37709;53.480;9.688;2022-12-24T07:30:54;30.80;;;10.43;;
2406;SDS011;37709;53.480;9.688;2022-12-24T07:33:23;32.03;;;11.07;;
2406;SDS011;37709;53.480;9.688;2022-12-24T07:35:57;26.80;;;10.70;;
2406;SDS011;37709;53.480;9.688;2022-12-24T07:38:26;29.30;;;10.73;;
2406;SDS011;37709;53.480;9.688;2022-12-24T07:40:54;32.40;;;11.83;;
2406;SDS011;37709;53.480;9.688;2022-12-24T07:43:22;32.37;;;9.53;;
2406;SDS011;37709;53.480;9.688;2022-12-24T07:45:50;48.80;;;12.10;;
2406;SDS011;37709;53.480;9.688;2022-12-24T07:48:21;41.27;;;12.10;;
2406;SDS011;37709;53.480;9.688;2022-12-24T07:50:49;42.70;;;11.90;;
2406;SDS011;37709;53.480;9.688;2022-12-24T07:53:18;35.10;;;11.00;;
2406;SDS011;37709;53.480;9.688;2022-12-24T07:55:46;25.00;;;10.47;;
2406;SDS011;37709;53.480;9.688;2022-12-24T07:58:13;31.97;;;11.20;;
2406;SDS011;37709;53.480;9.688;2022-12-24T08:00:41;43.63;;;12.87;;
2406;SDS011;37709;53.480;9.688;2022-12-24T08:03:10;36.87;;;12.03;;
2406;SDS011;37709;53.480;9.688;2022-12-24T08:05:43;29.00;;;10.67;;
2406;SDS011;37709;53.480;9.688;2022-12-24T08:08:11;35.23;;;12.50;;
2406;SDS011;37709;53.480;9.688;2022-12-24T08:10:39;38.40;;;12.13;;
2406;SDS011;37709;53.480;9.688;2022-12-24T08:13:08;41.73;;;13.10;;
2406;SDS011;37709;53.480;9.688;2022-12-24T08:15:35;47.60;;;13.50;;
2406;SDS011;37709;53.480;9.688;2022-12-24T08:18:03;52.87;;;14.27;;
2406;SDS011;37709;53.480;9.688;2022-12-24T08:20:30;38.43;;;12.30;;
2406;SDS011;37709;53.480;9.688;2022-12-24T08:22:58;39.50;;;12.20;;
2406;SDS011;37709;53.480;9.688;2022-12-24T08:25:28;30.30;;;10.80;;
2406;SDS011;37709;53.480;9.688;2022-12-24T08:27:56;45.67;;;12.57;;
2406;SDS011;37709;53.480;9.688;2022-12-24T08:30:23;26.50;;;10.93;;
2406;SDS011;37709;53.480;9.688;2022-12-24T08:32:51;36.53;;;11.93;;
2406;SDS011;37709;53.480;9.688;2022-12-24T08:35:18;35.67;;;10.87;;
2406;SDS011;37709;53.480;9.688;2022-12-24T08:37:46;40.77;;;11.90;;
2406;SDS011;37709;53.480;9.688;2022-12-24T08:40:14;31.43;;;10.93;;
2406;SDS011;37709;53.480;9.688;2022-12-24T08:42:41;32.87;;;12.30;;
2406;SDS011;37709;53.480;9.688;2022-12-24T08:45:08;35.27;;;11.40;;
2406;SDS011;37709;53.480;9.688;2022-12-24T08:47:37;30.70;;;10.83;;
2406;SDS011;37709;53.480;9.688;2022-12-24T08:50:05;33.43;;;12.00;;
2406;SDS011;37709;53.480;9.688;2022-12-24T08:52:33;43.90;;;13.00;;
2406;SDS011;37709;53.480;9.688;2022-12-24T08:55:00;30.40;;;11.50;;
2406;SDS011;37709;53.480;9.688;2022-12-24T08:57:28;32.20;;;12.07;;
2406;SDS011;37709;53.480;9.688;2022-12-24T08:59:55;31.80;;;10.47;;
2406;SDS011;37709;53.480;9.688;2022-12-24T09:02:23;31.40;;;10.50;;
2406;SDS011;37709;53.480;9.688;2022-12-24T09:04:51;23.13;;;8.90;;
2406;SDS011;37709;53.480;9.688;2022-12-24T09:07:18;32.60;;;12.18;;
2406;SDS011;37709;53.480;9.688;2022-12-24T09:09:45;27.50;;;12.20;;
2406;SDS011;37709;53.480;9.688;2022-12-24T09:12:13;24.73;;;9.73;;
2406;SDS011;37709;53.480;9.688;2022-12-24T09:14:40;31.37;;;11.30;;
2406;SDS011;37709;53.480;9.688;2022-12-24T09:17:07;28.70;;;11.00;;
2406;SDS011;37709;53.480;9.688;2022-12-24T09:19:34;26.70;;;10.47;;
2406;SDS011;37709;53.480;9.688;2022-12-24T09:22:02;36.37;;;12.20;;
2406;SDS011;37709;53.480;9.688;2022-12-24T09:24:29;33.67;;;11.93;;
2406;SDS011;37709;53.480;9.688;2022-12-24T09:26:56;32.87;;;11.80;;
2406;SDS011;37709;53.480;9.688;2022-12-24T09:29:24;30.10;;;11.57;;
2406;SDS011;37709;53.480;9.688;2022-12-24T09:31:52;37.60;;;12.60;;
2406;SDS011;37709;53.480;9.688;2022-12-24T09:34:20;27.63;;;11.40;;
2406;SDS011;37709;53.480;9.688;2022-12-24T09:36:56;29.90;;;11.30;;
2406;SDS011;37709;53.480;9.688;2022-12-24T09:39:23;24.80;;;10.70;;
2406;SDS011;37709;53.480;9.688;2022-12-24T09:44:57;36.97;;;11.40;;
2406;SDS011;37709;53.480;9.688;2022-12-24T09:47:35;27.87;;;9.17;;
2406;SDS011;37709;53.480;9.688;2022-12-24T09:50:25;26.10;;;10.00;;
2406;SDS011;37709;53.480;9.688;2022-12-24T09:53:11;43.70;;;12.53;;
2406;SDS011;37709;53.480;9.688;2022-12-24T09:55:55;33.83;;;11.10;;
2406;SDS011;37709;53.480;9.688;2022-12-24T09:58:28;23.70;;;8.90;;
2406;SDS011;37709;53.480;9.688;2022-12-24T10:00:59;29.97;;;10.83;;
2406;SDS011;37709;53.480;9.688;2022-12-24T10:03:26;21.17;;;7.80;;
2406;SDS011;37709;53.480;9.688;2022-12-24T10:06:28;21.80;;;8.90;;
2406;SDS011;37709;53.480;9.688;2022-12-24T10:09:04;27.03;;;9.37;;
2406;SDS011;37709;53.480;9.688;2022-12-24T10:19:49;34.70;;;12.63;;
2406;SDS011;37709;53.480;9.688;2022-12-24T10:22:22;19.47;;;9.77;;
2406;SDS011;37709;53.480;9.688;2022-12-24T10:27:25;32.00;;;11.60;;
2406;SDS011;37709;53.480;9.688;2022-12-24T10:30:00;25.53;;;12.77;;
2406;SDS011;37709;53.480;9.688;2022-12-24T10:32:31;25.47;;;12.80;;
2406;SDS011;37709;53.480;9.688;2022-12-24T10:35:03;27.40;;;11.43;;
2406;SDS011;37709;53.480;9.688;2022-12-24T10:37:42;18.03;;;10.37;;
2406;SDS011;37709;53.480;9.688;2022-12-24T10:40:15;35.13;;;11.33;;
2406;SDS011;37709;53.480;9.688;2022-12-24T10:42:53;18.80;;;9.90;;
2406;SDS011;37709;53.480;9.688;2022-12-24T10:45:21;16.97;;;9.17;;
2406;SDS011;37709;53.480;9.688;2022-12-24T10:47:53;22.00;;;10.60;;
2406;SDS011;37709;53.480;9.688;2022-12-24T10:50:32;24.83;;;11.83;;
2406;SDS011;37709;53.480;9.688;2022-12-24T10:53:13;24.60;;;10.93;;
2406;SDS011;37709;53.480;9.688;2022-12-24T10:55:47;21.47;;;10.17;;
2406;SDS011;37709;53.480;9.688;2022-12-24T10:58:15;25.40;;;12.63;;
2406;SDS011;37709;53.480;9.688;2022-12-24T11:00:49;25.80;;;13.07;;
2406;SDS011;37709;53.480;9.688;2022-12-24T11:05:45;23.83;;;11.40;;
2406;SDS011;37709;53.480;9.688;2022-12-24T11:10:40;22.53;;;11.23;;
2406;SDS011;37709;53.480;9.688;2022-12-24T11:13:25;21.70;;;12.27;;
2406;SDS011;37709;53.480;9.688;2022-12-24T11:16:47;29.43;;;14.33;;
2406;SDS011;37709;53.480;9.688;2022-12-24T11:19:15;22.27;;;12.77;;
2406;SDS011;37709;53.480;9.688;2022-12-24T11:21:44;22.90;;;12.07;;
2406;SDS011;37709;53.480;9.688;2022-12-24T11:26:40;19.77;;;12.80;;
2406;SDS011;37709;53.480;9.688;2022-12-24T11:29:17;23.87;;;13.80;;
2406;SDS011;37709;53.480;9.688;2022-12-24T11:32:09;21.97;;;11.50;;
2406;SDS011;37709;53.480;9.688;2022-12-24T11:34:42;17.57;;;10.83;;
2406;SDS011;37709;53.480;9.688;2022-12-24T11:37:15;23.33;;;11.67;;
2406;SDS011;37709;53.480;9.688;2022-12-24T11:39:50;15.27;;;9.63;;
2406;SDS011;37709;53.480;9.688;2022-12-24T11:42:30;27.60;;;11.83;;
2406;SDS011;37709;53.480;9.688;2022-12-24T11:45:01;15.53;;;9.30;;
2406;SDS011;37709;53.480;9.688;2022-12-24T11:47:34;17.13;;;9.77;;
2406;SDS011;37709;53.480;9.688;2022-12-24T11:50:23;13.47;;;7.80;;
2406;SDS011;37709;53.480;9.688;2022-12-24T11:58:16;13.30;;;5.87;;
2406;SDS011;37709;53.480;9.688;2022-12-24T12:00:46;15.13;;;5.50;;
2406;SDS011;37709;53.480;9.688;2022-12-24T12:03:20;15.90;;;5.73;;
2406;SDS011;37709;53.480;9.688;2022-12-24T12:05:58;16.53;;;4.93;;
2406;SDS011;37709;53.480;9.688;2022-12-24T12:08:29;15.33;;;6.13;;
2406;SDS011;37709;53.480;9.688;2022-12-24T12:10:58;14.10;;;5.50;;
2406;SDS011;37709;53.480;9.688;2022-12-24T12:13:30;15.67;;;5.20;;
2406;SDS011;37709;53.480;9.688;2022-12-24T12:18:45;14.10;;;4.93;;
2406;SDS011;37709;53.480;9.688;2022-12-24T12:21:36;9.93;;;4.00;;
2406;SDS011;37709;53.480;9.688;2022-12-24T12:24:12;17.40;;;6.17;;
2406;SDS011;37709;53.480;9.688;2022-12-24T12:27:06;16.90;;;4.33;;
2406;SDS011;37709;53.480;9.688;2022-12-24T12:29:48;16.87;;;5.23;;
2406;SDS011;37709;53.480;9.688;2022-12-24T12:35:26;16.30;;;4.70;;
2406;SDS011;37709;53.480;9.688;2022-12-24T12:38:08;17.33;;;6.60;;
2406;SDS011;37709;53.480;9.688;2022-12-24T12:40:43;12.73;;;4.47;;
2406;SDS011;37709;53.480;9.688;2022-12-24T12:49:14;13.23;;;4.27;;
2406;SDS011;37709;53.480;9.688;2022-12-24T12:51:51;14.47;;;4.70;;
2406;SDS011;37709;53.480;9.688;2022-12-24T12:54:42;17.37;;;4.60;;
2406;SDS011;37709;53.480;9.688;2022-12-24T12:57:18;13.53;;;5.03;;
2406;SDS011;37709;53.480;9.688;2022-12-24T12:59:52;12.97;;;4.47;;
2406;SDS011;37709;53.480;9.688;2022-12-24T13:05:17;16.87;;;4.70;;
2406;SDS011;37709;53.480;9.688;2022-12-24T13:13:27;11.20;;;4.07;;
2406;SDS011;37709;53.480;9.688;2022-12-24T13:18:43;11.13;;;3.90;;
2406;SDS011;37709;53.480;9.688;2022-12-24T13:21:24;10.63;;;3.83;;
2406;SDS011;37709;53.480;9.688;2022-12-24T13:29:54;16.40;;;4.30;;
2406;SDS011;37709;53.480;9.688;2022-12-24T13:35:02;15.77;;;4.20;;
2406;SDS011;37709;53.480;9.688;2022-12-24T13:37:50;13.20;;;4.70;;
2406;SDS011;37709;53.480;9.688;2022-12-24T13:40:22;6.50;;;3.20;;
2406;SDS011;37709;53.480;9.688;2022-12-24T13:50:35;21.13;;;5.83;;
2406;SDS011;37709;53.480;9.688;2022-12-24T13:53:06;16.87;;;4.73;;
2406;SDS011;37709;53.480;9.688;2022-12-24T13:55:53;12.03;;;4.27;;
2406;SDS011;37709;53.480;9.688;2022-12-24T13:58:22;18.03;;;4.80;;
2406;SDS011;37709;53.480;9.688;2022-12-24T14:00:55;12.00;;;4.33;;
2406;SDS011;37709;53.480;9.688;2022-12-24T14:03:36;18.70;;;4.67;;
2406;SDS011;37709;53.480;9.688;2022-12-24T14:08:47;15.93;;;4.43;;
2406;SDS011;37709;53.480;9.688;2022-12-24T14:11:18;12.23;;;5.37;;
2406;SDS011;37709;53.480;9.688;2022-12-24T14:16:16;20.67;;;5.07;;
2406;SDS011;37709;53.480;9.688;2022-12-24T14:19:01;12.50;;;4.87;;
2406;SDS011;37709;53.480;9.688;2022-12-24T14:21:41;16.70;;;5.53;;
2406;SDS011;37709;53.480;9.688;2022-12-24T14:24:32;22.63;;;6.30;;
2406;SDS011;37709;53.480;9.688;2022-12-24T14:27:06;21.13;;;5.70;;
2406;SDS011;37709;53.480;9.688;2022-12-24T14:29:58;18.93;;;7.30;;
2406;SDS011;37709;53.480;9.688;2022-12-24T14:32:35;14.97;;;6.63;;
2406;SDS011;37709;53.480;9.688;2022-12-24T14:35:10;20.60;;;8.23;;
2406;SDS011;37709;53.480;9.688;2022-12-24T14:38:04;15.40;;;6.10;;
2406;SDS011;37709;53.480;9.688;2022-12-24T14:40:49;15.63;;;6.40;;
2406;SDS011;37709;53.480;9.688;2022-12-24T14:46:37;15.70;;;6.83;;
2406;SDS011;37709;53.480;9.688;2022-12-24T14:49:36;20.17;;;8.37;;
2406;SDS011;37709;53.480;9.688;2022-12-24T14:52:41;21.80;;;7.20;;
2406;SDS011;37709;53.480;9.688;2022-12-24T14:55:40;21.43;;;7.37;;
2406;SDS011;37709;53.480;9.688;2022-12-24T14:58:17;19.80;;;7.00;;
2406;SDS011;37709;53.480;9.688;2022-12-24T15:00:54;25.10;;;6.33;;
2406;SDS011;37709;53.480;9.688;2022-12-24T15:03:30;17.13;;;7.63;;
2406;SDS011;37709;53.480;9.688;2022-12-24T15:06:03;18.93;;;7.77;;
2406;SDS011;37709;53.480;9.688;2022-12-24T15:08:35;21.53;;;6.73;;
2406;SDS011;37709;53.480;9.688;2022-12-24T15:11:16;29.93;;;7.07;;
2406;SDS011;37709;53.480;9.688;2022-12-24T15:13:49;22.60;;;6.87;;
2406;SDS011;37709;53.480;9.688;2022-12-24T15:16:24;21.77;;;7.23;;
2406;SDS011;37709;53.480;9.688;2022-12-24T15:18:55;21.37;;;6.87;;
2406;SDS011;37709;53.480;9.688;2022-12-24T15:21:30;16.07;;;6.90;;
2406;SDS011;37709;53.480;9.688;2022-12-24T15:23:59;20.00;;;7.60;;
2406;SDS011;37709;53.480;9.688;2022-12-24T15:26:28;24.00;;;8.20;;
2406;SDS011;37709;53.480;9.688;2022-12-24T15:28:58;29.30;;;9.50;;
2406;SDS011;37709;53.480;9.688;2022-12-24T15:31:30;19.47;;;7.67;;
2406;SDS011;37709;53.480;9.688;2022-12-24T15:33:58;19.30;;;7.97;;
2406;SDS011;37709;53.480;9.688;2022-12-24T15:36:27;32.33;;;8.03;;
2406;SDS011;37709;53.480;9.688;2022-12-24T15:39:05;18.77;;;8.20;;
2406;SDS011;37709;53.480;9.688;2022-12-24T15:41:40;33.13;;;8.90;;
2406;SDS011;37709;53.480;9.688;2022-12-24T15:44:32;19.20;;;8.60;;
2406;SDS011;37709;53.480;9.688;2022-12-24T15:47:03;27.40;;;9.13;;
2406;SDS011;37709;53.480;9.688;2022-12-24T15:49:33;24.83;;;8.47;;
2406;SDS011;37709;53.480;9.688;2022-12-24T15:52:07;26.10;;;9.40;;
2406;SDS011;37709;53.480;9.688;2022-12-24T15:54:44;24.80;;;10.03;;
2406;SDS011;37709;53.480;9.688;2022-12-24T15:57:23;30.27;;;9.90;;
2406;SDS011;37709;53.480;9.688;2022-12-24T15:59:58;31.60;;;12.30;;
2406;SDS011;37709;53.480;9.688;2022-12-24T16:15:51;24.50;;;9.33;;
2406;SDS011;37709;53.480;9.688;2022-12-24T16:18:21;28.23;;;10.47;;
2406;SDS011;37709;53.480;9.688;2022-12-24T16:21:14;25.40;;;7.97;;
2406;SDS011;37709;53.480;9.688;2022-12-24T16:23:56;19.60;;;6.57;;
2406;SDS011;37709;53.480;9.688;2022-12-24T16:26:32;24.87;;;8.57;;
2406;SDS011;37709;53.480;9.688;2022-12-24T16:29:02;30.37;;;8.83;;
2406;SDS011;37709;53.480;9.688;2022-12-24T16:31:30;19.70;;;6.60;;
2406;SDS011;37709;53.480;9.688;2022-12-24T16:34:01;15.50;;;7.30;;
2406;SDS011;37709;53.480;9.688;2022-12-24T16:36:31;30.90;;;7.33;;
2406;SDS011;37709;53.480;9.688;2022-12-24T16:38:58;15.50;;;6.80;;
2406;SDS011;37709;53.480;9.688;2022-12-24T16:41:44;18.10;;;6.20;;
2406;SDS011;37709;53.480;9.688;2022-12-24T16:44:30;16.27;;;6.07;;
2406;SDS011;37709;53.480;9.688;2022-12-24T16:46:58;13.17;;;6.53;;
2406;SDS011;37709;53.480;9.688;2022-12-24T16:49:26;13.73;;;5.70;;
2406;SDS011;37709;53.480;9.688;2022-12-24T16:51:55;18.47;;;6.37;;
2406;SDS011;37709;53.480;9.688;2022-12-24T16:54:22;17.73;;;6.27;;
2406;SDS011;37709;53.480;9.688;2022-12-24T16:56:50;18.70;;;5.00;;